createdAt,value
2022-08-26T00:01:29.184Z,22.60
2022-08-26T00:03:57.954Z,22.60
2022-08-26T00:06:27.368Z,22.60
2022-08-26T00:08:55.266Z,22.60
2022-08-26T00:11:26.720Z,22.60
2022-08-26T00:13:56.684Z,22.60
2022-08-26T00:16:25.823Z,22.50
2022-08-26T00:18:54.570Z,22.50
2022-08-26T00:21:22.338Z,22.50
2022-08-26T00:23:51.548Z,22.40
2022-08-26T00:26:30.499Z,22.50
2022-08-26T00:28:58.354Z,22.40
2022-08-26T00:31:31.153Z,22.40
2022-08-26T00:34:01.185Z,22.40
2022-08-26T00:36:31.127Z,22.40
2022-08-26T00:39:00.665Z,22.30
2022-08-26T00:41:28.727Z,22.30
2022-08-26T00:43:55.363Z,22.30
2022-08-26T00:46:36.675Z,22.30
2022-08-26T00:49:16.717Z,22.30
2022-08-26T00:51:52.384Z,22.20
2022-08-26T00:54:26.965Z,22.20
2022-08-26T00:57:16.477Z,22.20
2022-08-26T00:59:48.917Z,22.10
2022-08-26T01:02:19.977Z,22.00
2022-08-26T01:04:55.876Z,22.00
2022-08-26T01:07:24.703Z,22.00
2022-08-26T01:09:52.852Z,22.00
2022-08-26T01:12:23.783Z,22.00
2022-08-26T01:14:53.151Z,22.00
2022-08-26T01:17:21.231Z,22.00
2022-08-26T01:19:53.942Z,22.10
2022-08-26T01:22:42.320Z,22.10
2022-08-26T01:25:12.643Z,22.10
2022-08-26T01:27:40.414Z,22.20
2022-08-26T01:30:09.078Z,22.20
2022-08-26T01:32:38.911Z,22.10
2022-08-26T01:35:16.593Z,22.10
2022-08-26T01:37:49.456Z,22.10
2022-08-26T01:40:23.155Z,22.10
2022-08-26T01:42:52.511Z,22.10
2022-08-26T01:45:25.003Z,22.10
2022-08-26T01:47:56.528Z,22.10
2022-08-26T01:50:31.215Z,22.00
2022-08-26T01:53:12.145Z,22.00
2022-08-26T01:55:45.727Z,22.00
2022-08-26T01:58:21.565Z,22.00
2022-08-26T02:00:50.379Z,22.00
2022-08-26T02:03:19.474Z,22.00
2022-08-26T02:05:59.135Z,22.00
2022-08-26T02:08:38.456Z,22.00
2022-08-26T02:11:07.529Z,22.00
2022-08-26T02:13:38.345Z,22.00
2022-08-26T02:16:08.430Z,21.90
2022-08-26T02:18:40.075Z,21.90
2022-08-26T02:21:10.864Z,21.90
2022-08-26T02:23:40.303Z,21.90
2022-08-26T02:26:17.096Z,21.80
2022-08-26T02:29:05.228Z,21.80
2022-08-26T02:31:35.963Z,21.80
2022-08-26T02:34:15.110Z,21.80
2022-08-26T02:36:44.143Z,21.80
2022-08-26T02:39:11.677Z,21.80
2022-08-26T02:41:40.287Z,21.80
2022-08-26T02:44:12.614Z,21.90
2022-08-26T02:46:41.332Z,21.90
2022-08-26T02:49:16.002Z,21.90
2022-08-26T02:51:45.151Z,21.90
2022-08-26T02:54:13.351Z,21.90
2022-08-26T02:56:41.219Z,21.80
2022-08-26T02:59:11.761Z,21.80
2022-08-26T03:01:42.279Z,21.80
2022-08-26T03:04:19.520Z,21.80
2022-08-26T03:06:52.926Z,21.80
2022-08-26T03:09:23.906Z,21.80
2022-08-26T03:11:53.107Z,21.80
2022-08-26T03:14:20.240Z,21.80
2022-08-26T03:16:49.190Z,21.90
2022-08-26T03:19:17.672Z,21.90
2022-08-26T03:21:47.199Z,21.90
2022-08-26T03:24:14.538Z,21.90
2022-08-26T03:26:52.605Z,21.90
2022-08-26T03:29:22.367Z,21.90
2022-08-26T03:31:50.447Z,21.90
2022-08-26T03:34:18.408Z,21.90
2022-08-26T03:36:46.631Z,21.90
2022-08-26T03:39:13.771Z,21.90
2022-08-26T03:41:41.834Z,21.80
2022-08-26T03:44:09.666Z,21.80
2022-08-26T03:46:39.052Z,21.80
2022-08-26T03:49:07.941Z,21.80
2022-08-26T03:51:38.882Z,21.80
2022-08-26T03:54:08.166Z,21.80
2022-08-26T03:56:37.041Z,21.80
2022-08-26T03:59:05.479Z,21.80
2022-08-26T04:01:36.150Z,21.80
2022-08-26T04:04:06.521Z,21.70
2022-08-26T04:06:41.528Z,21.70
2022-08-26T04:09:14.304Z,21.80
2022-08-26T04:11:43.713Z,21.80
2022-08-26T04:14:22.153Z,21.70
2022-08-26T04:16:51.567Z,21.70
2022-08-26T04:19:20.858Z,21.70
2022-08-26T04:21:50.078Z,21.70
2022-08-26T04:24:18.002Z,21.70
2022-08-26T04:26:46.007Z,21.70
2022-08-26T04:29:20.346Z,21.60
2022-08-26T04:31:49.671Z,21.60
2022-08-26T04:34:24.798Z,21.60
2022-08-26T04:36:57.569Z,21.70
2022-08-26T04:39:25.615Z,21.70
2022-08-26T04:41:57.885Z,21.70
2022-08-26T04:44:28.483Z,21.70
2022-08-26T04:47:05.559Z,21.70
2022-08-26T04:49:35.408Z,21.70
2022-08-26T04:52:04.758Z,21.70
2022-08-26T04:54:31.884Z,21.70
2022-08-26T04:57:00.704Z,21.80
2022-08-26T04:59:28.617Z,21.70
2022-08-26T05:01:56.737Z,21.70
2022-08-26T05:04:23.536Z,21.80
2022-08-26T05:06:50.769Z,21.80
2022-08-26T05:09:20.361Z,21.80
2022-08-26T05:11:52.102Z,21.80
2022-08-26T05:14:21.713Z,21.80
2022-08-26T05:16:50.810Z,21.90
2022-08-26T05:19:19.178Z,21.90
2022-08-26T05:21:48.129Z,21.90
2022-08-26T05:24:17.788Z,21.90
2022-08-26T05:26:46.357Z,21.90
2022-08-26T05:29:14.285Z,22.00
2022-08-26T05:31:41.297Z,22.00
2022-08-26T05:34:09.287Z,22.10
2022-08-26T05:36:37.836Z,22.20
2022-08-26T05:39:07.314Z,22.20
2022-08-26T05:41:38.390Z,22.30
2022-08-26T05:44:09.782Z,22.30
2022-08-26T05:46:37.696Z,22.30
2022-08-26T05:49:05.831Z,22.20
2022-08-26T05:51:34.966Z,22.30
2022-08-26T05:54:03.601Z,22.40
2022-08-26T05:56:31.801Z,22.40
2022-08-26T05:58:59.994Z,22.40
2022-08-26T06:01:28.216Z,22.40
2022-08-26T06:03:59.745Z,22.40
2022-08-26T06:06:32.512Z,22.40
2022-08-26T06:09:02.114Z,22.40
2022-08-26T06:11:31.127Z,22.50
2022-08-26T06:14:03.819Z,22.50
2022-08-26T06:16:32.226Z,22.60
2022-08-26T06:19:02.646Z,22.60
2022-08-26T06:21:33.646Z,22.60
2022-08-26T06:24:05.152Z,22.60
2022-08-26T06:26:33.796Z,22.60
2022-08-26T06:29:05.171Z,22.60
2022-08-26T06:31:33.793Z,22.70
2022-08-26T06:34:10.375Z,22.70
2022-08-26T06:36:42.041Z,22.70
2022-08-26T06:39:13.579Z,22.70
2022-08-26T06:41:43.400Z,22.80
2022-08-26T06:44:11.223Z,22.80
2022-08-26T06:46:38.357Z,22.90
2022-08-26T06:49:06.673Z,22.90
2022-08-26T06:51:38.627Z,23.00
2022-08-26T06:54:09.714Z,23.00
2022-08-26T06:56:39.950Z,23.10
2022-08-26T06:59:09.462Z,23.10
2022-08-26T07:01:42.968Z,23.10
2022-08-26T07:04:13.803Z,23.20
2022-08-26T07:06:44.828Z,23.20
2022-08-26T07:09:13.943Z,23.30
2022-08-26T07:11:42.013Z,23.30
2022-08-26T07:14:10.278Z,23.40
2022-08-26T07:16:40.070Z,23.40
2022-08-26T07:19:11.294Z,23.40
2022-08-26T07:21:40.396Z,23.40
2022-08-26T07:24:11.232Z,23.50
2022-08-26T07:26:43.012Z,23.60
2022-08-26T07:29:12.792Z,23.60
2022-08-26T07:31:49.036Z,23.60
2022-08-26T07:34:16.922Z,23.70
2022-08-26T07:36:45.032Z,23.70
2022-08-26T07:39:13.098Z,23.70
2022-08-26T07:41:39.815Z,23.80
2022-08-26T07:44:07.682Z,23.80
2022-08-26T07:46:36.485Z,23.90
2022-08-26T07:49:04.547Z,23.90
2022-08-26T07:51:32.010Z,24.00
2022-08-26T07:53:58.791Z,24.00
2022-08-26T07:56:26.384Z,24.10
2022-08-26T07:58:54.404Z,24.10
2022-08-26T08:01:25.735Z,24.20
2022-08-26T08:03:54.415Z,24.30
2022-08-26T08:06:27.286Z,24.30
2022-08-26T08:08:55.146Z,24.40
2022-08-26T08:11:24.415Z,24.40
2022-08-26T08:13:56.120Z,24.50
2022-08-26T08:16:26.020Z,24.50
2022-08-26T08:18:55.597Z,24.60
2022-08-26T08:21:25.559Z,24.60
2022-08-26T08:23:54.089Z,24.70
2022-08-26T08:26:22.197Z,24.80
2022-08-26T08:28:50.907Z,24.80
2022-08-26T08:31:54.540Z,24.80
2022-08-26T08:34:16.639Z,24.90
2022-08-26T08:36:45.604Z,25.00
2022-08-26T08:39:14.344Z,25.00
2022-08-26T08:42:37.721Z,25.10
2022-08-26T08:45:52.912Z,25.20
2022-08-26T08:48:30.370Z,25.20
2022-08-26T08:51:18.543Z,25.30
2022-08-26T08:53:47.933Z,25.40
2022-08-26T08:56:36.778Z,25.40
2022-08-26T08:59:31.211Z,25.50
2022-08-26T09:02:30.838Z,25.70
2022-08-26T09:05:18.568Z,25.80
2022-08-26T09:08:06.572Z,25.90
2022-08-26T09:10:40.424Z,26.00
2022-08-26T09:13:13.818Z,26.10
2022-08-26T09:16:02.121Z,26.20
2022-08-26T09:18:59.891Z,26.30
2022-08-26T09:21:28.016Z,26.40
2022-08-26T09:23:56.828Z,26.40
2022-08-26T09:26:40.956Z,26.50
2022-08-26T09:29:25.379Z,26.60
2022-08-26T09:32:16.537Z,26.70
2022-08-26T09:35:26.906Z,26.80
2022-08-26T09:37:56.436Z,26.90
2022-08-26T09:40:31.044Z,27.00
2022-08-26T09:43:10.863Z,27.20
2022-08-26T09:45:41.179Z,27.30
2022-08-26T09:48:36.087Z,27.40
2022-08-26T09:51:20.484Z,27.50
2022-08-26T09:53:51.701Z,27.60
2022-08-26T09:56:35.158Z,27.60
2022-08-26T09:59:06.432Z,27.70
2022-08-26T10:01:42.611Z,27.90
2022-08-26T10:04:13.708Z,27.90
2022-08-26T10:07:01.304Z,27.90
2022-08-26T10:09:32.912Z,27.90
2022-08-26T10:12:11.234Z,27.90
2022-08-26T10:17:51.936Z,27.90
2022-08-26T10:20:32.977Z,27.90
2022-08-26T10:23:12.191Z,28.00
2022-08-26T10:26:09.727Z,28.00
2022-08-26T10:28:57.801Z,28.10
2022-08-26T10:31:43.791Z,28.00
2022-08-26T10:34:15.424Z,28.10
2022-08-26T10:37:14.511Z,28.10
2022-08-26T10:40:18.343Z,28.20
2022-08-26T10:43:14.347Z,28.20
2022-08-26T10:45:52.604Z,28.30
2022-08-26T10:48:35.828Z,28.40
2022-08-26T10:51:05.678Z,28.40
2022-08-26T10:53:44.349Z,28.50
2022-08-26T10:56:28.315Z,28.60
2022-08-26T10:59:10.347Z,28.80
2022-08-26T11:02:03.808Z,28.90
2022-08-26T11:05:00.879Z,29.00
2022-08-26T11:07:39.935Z,29.10
2022-08-26T11:10:21.958Z,29.20
2022-08-26T11:12:52.507Z,29.20
2022-08-26T11:15:26.406Z,29.00
2022-08-26T11:17:58.025Z,29.00
2022-08-26T11:20:47.254Z,29.00
2022-08-26T11:23:19.782Z,28.90
2022-08-26T11:26:00.781Z,28.90
2022-08-26T11:28:50.456Z,28.80
2022-08-26T11:31:26.911Z,28.80
2022-08-26T11:33:59.838Z,28.80
2022-08-26T11:36:45.839Z,28.80
2022-08-26T11:39:26.597Z,28.70
2022-08-26T11:42:16.583Z,28.70
2022-08-26T11:44:49.085Z,28.80
2022-08-26T11:47:25.806Z,28.80
2022-08-26T11:50:25.468Z,28.80
2022-08-26T11:53:02.807Z,28.80
2022-08-26T11:55:33.791Z,28.70
2022-08-26T11:58:04.888Z,28.70
2022-08-26T12:00:46.319Z,28.60
2022-08-26T12:03:23.039Z,28.50
2022-08-26T12:05:53.315Z,28.40
2022-08-26T12:08:28.162Z,28.20
2022-08-26T12:11:10.632Z,27.70
2022-08-26T12:13:37.763Z,26.50
2022-08-26T12:16:06.709Z,25.20
2022-08-26T12:18:40.926Z,24.10
2022-08-26T12:21:20.857Z,23.30
2022-08-26T12:23:55.023Z,22.70
2022-08-26T12:26:29.428Z,22.20
2022-08-26T12:28:58.542Z,21.80
2022-08-26T12:31:43.294Z,21.60
2022-08-26T12:34:18.151Z,21.30
2022-08-26T12:39:36.665Z,21.00
2022-08-26T12:42:40.209Z,20.80
2022-08-26T12:45:08.543Z,20.60
2022-08-26T12:47:42.914Z,20.50
2022-08-26T12:50:25.396Z,20.40
2022-08-26T12:53:09.528Z,20.40
2022-08-26T12:55:46.165Z,20.30
2022-08-26T12:58:23.554Z,20.20
2022-08-26T13:00:55.466Z,20.10
2022-08-26T13:03:28.520Z,19.90
2022-08-26T13:06:20.769Z,19.90
2022-08-26T13:09:02.755Z,19.70
2022-08-26T13:11:51.127Z,19.60
2022-08-26T13:14:23.788Z,19.60
2022-08-26T13:16:53.324Z,19.40
2022-08-26T13:19:23.956Z,18.90
2022-08-26T13:21:55.518Z,18.60
2022-08-26T13:24:32.560Z,18.50
2022-08-26T13:26:59.872Z,18.50
2022-08-26T13:29:28.108Z,18.50
2022-08-26T13:31:56.569Z,18.60
2022-08-26T13:34:26.739Z,18.60
2022-08-26T13:36:55.792Z,18.80
2022-08-26T13:39:25.347Z,18.80
2022-08-26T13:41:52.434Z,18.80
2022-08-26T13:44:19.536Z,18.70
2022-08-26T13:46:46.285Z,18.80
2022-08-26T13:49:13.286Z,18.80
2022-08-26T13:51:41.315Z,18.70
2022-08-26T13:54:09.399Z,18.60
2022-08-26T13:56:37.295Z,18.70
2022-08-26T13:59:04.627Z,18.60
2022-08-26T14:01:32.096Z,18.60
2022-08-26T14:03:59.952Z,18.60
2022-08-26T14:06:27.962Z,18.60
2022-08-26T14:08:55.942Z,18.80
2022-08-26T14:11:24.546Z,18.90
2022-08-26T14:13:51.341Z,18.90
2022-08-26T14:16:25.526Z,18.90
2022-08-26T14:18:53.815Z,18.90
2022-08-26T14:21:22.117Z,18.80
2022-08-26T14:23:50.325Z,18.80
2022-08-26T14:26:27.772Z,18.80
2022-08-26T14:28:58.520Z,18.80
2022-08-26T14:31:28.505Z,18.70
2022-08-26T14:34:03.793Z,18.70
2022-08-26T14:36:33.332Z,18.70
2022-08-26T14:39:05.983Z,18.80
2022-08-26T14:41:34.704Z,18.70
2022-08-26T14:44:11.246Z,18.80
2022-08-26T14:46:47.815Z,18.80
2022-08-26T14:49:17.280Z,18.90
2022-08-26T14:51:45.947Z,18.90
2022-08-26T14:54:15.931Z,18.90
2022-08-26T14:56:52.986Z,18.80
2022-08-26T14:59:24.541Z,18.80
2022-08-26T15:01:53.689Z,18.60
2022-08-26T15:04:23.093Z,18.30
2022-08-26T15:06:53.314Z,18.00
2022-08-26T15:09:22.607Z,17.90
2022-08-26T15:11:49.698Z,17.90
2022-08-26T15:14:19.809Z,17.90
2022-08-26T15:16:53.004Z,17.90
2022-08-26T15:19:21.821Z,17.80
2022-08-26T15:21:50.654Z,17.90
2022-08-26T15:24:22.655Z,17.90
2022-08-26T15:26:50.050Z,17.80
2022-08-26T15:29:17.055Z,17.80
2022-08-26T15:31:44.994Z,17.80
2022-08-26T15:34:16.429Z,17.90
2022-08-26T15:36:46.892Z,17.80
2022-08-26T15:39:16.113Z,17.80
2022-08-26T15:41:43.207Z,17.90
2022-08-26T15:44:13.665Z,17.90
2022-08-26T15:46:41.555Z,18.00
2022-08-26T15:49:12.077Z,18.10
2022-08-26T15:51:47.639Z,18.30
2022-08-26T15:54:17.478Z,18.40
2022-08-26T15:56:44.579Z,18.40
2022-08-26T15:59:12.692Z,18.40
2022-08-26T16:01:40.539Z,18.60
2022-08-26T16:04:08.780Z,18.60
2022-08-26T16:06:38.741Z,18.70
2022-08-26T16:09:07.751Z,18.60
2022-08-26T16:11:35.554Z,18.50
2022-08-26T16:14:03.147Z,18.40
2022-08-26T16:16:30.120Z,18.40
2022-08-26T16:18:57.924Z,18.30
2022-08-26T16:21:26.816Z,18.30
2022-08-26T16:23:55.970Z,18.30
2022-08-26T16:26:35.732Z,18.40
2022-08-26T16:29:07.052Z,18.50
2022-08-26T16:31:34.601Z,18.50
2022-08-26T16:34:02.922Z,18.60
2022-08-26T16:36:30.997Z,18.60
2022-08-26T16:38:58.843Z,18.70
2022-08-26T16:41:29.076Z,18.70
2022-08-26T16:43:56.027Z,18.60
2022-08-26T16:46:25.527Z,18.60
2022-08-26T16:48:55.571Z,18.60
2022-08-26T16:51:25.756Z,18.60
2022-08-26T16:53:57.357Z,18.60
2022-08-26T16:56:27.723Z,18.70
2022-08-26T16:59:05.110Z,18.70
2022-08-26T17:01:33.027Z,18.80
2022-08-26T17:04:01.177Z,18.80
2022-08-26T17:06:29.498Z,18.80
2022-08-26T17:08:57.439Z,18.80
2022-08-26T17:11:25.695Z,18.80
2022-08-26T17:13:54.477Z,18.80
2022-08-26T17:16:27.034Z,18.90
2022-08-26T17:18:58.429Z,18.90
2022-08-26T17:23:58.171Z,18.90
2022-08-26T17:26:29.392Z,18.90
2022-08-26T17:28:56.253Z,19.00
2022-08-26T17:31:23.902Z,19.00
2022-08-26T17:33:53.384Z,19.00
2022-08-26T17:36:27.826Z,19.00
2022-08-26T17:38:57.643Z,19.00
2022-08-26T17:41:25.046Z,19.00
2022-08-26T17:43:51.785Z,18.90
2022-08-26T17:46:19.891Z,18.90
2022-08-26T17:48:47.820Z,18.90
2022-08-26T17:51:18.002Z,19.00
2022-08-26T17:53:46.924Z,19.00
2022-08-26T17:56:17.004Z,19.00
2022-08-26T17:58:51.333Z,19.00
2022-08-26T18:01:24.477Z,19.00
2022-08-26T18:03:55.664Z,18.80
2022-08-26T18:06:27.250Z,18.80
2022-08-26T18:08:55.504Z,18.80
2022-08-26T18:11:23.346Z,18.70
2022-08-26T18:13:53.541Z,18.70
2022-08-26T18:16:21.082Z,18.60
2022-08-26T18:18:49.871Z,18.60
2022-08-26T18:21:19.072Z,18.60
2022-08-26T18:23:47.691Z,18.70
2022-08-26T18:26:27.447Z,18.70
2022-08-26T18:28:54.620Z,18.70
2022-08-26T18:31:21.949Z,18.80
2022-08-26T18:33:50.166Z,18.70
2022-08-26T18:36:26.668Z,18.60
2022-08-26T18:38:55.755Z,18.50
2022-08-26T18:41:24.485Z,18.30
2022-08-26T18:43:52.657Z,18.30
2022-08-26T18:46:22.922Z,18.50
2022-08-26T18:48:51.139Z,18.50
2022-08-26T18:51:24.856Z,18.60
2022-08-26T18:53:53.027Z,18.50
2022-08-26T18:56:19.814Z,18.60
2022-08-26T18:58:46.854Z,18.60
2022-08-26T19:01:16.331Z,18.40
2022-08-26T19:03:45.762Z,18.30
2022-08-26T19:06:20.112Z,18.30
2022-08-26T19:08:49.897Z,18.30
2022-08-26T19:11:31.345Z,18.20
2022-08-26T19:14:01.127Z,18.10
2022-08-26T19:16:29.041Z,18.20
2022-08-26T19:18:57.492Z,18.20
2022-08-26T19:21:25.895Z,18.30
2022-08-26T19:23:57.844Z,18.10
2022-08-26T19:26:25.641Z,18.10
2022-08-26T19:28:52.789Z,18.10
2022-08-26T19:31:20.907Z,18.20
2022-08-26T19:33:49.151Z,18.20
2022-08-26T19:36:20.660Z,18.20
2022-08-26T19:38:49.549Z,18.20
2022-08-26T19:41:37.060Z,18.20
2022-08-26T19:44:14.132Z,18.20
2022-08-26T19:46:41.138Z,18.30
2022-08-26T19:49:08.860Z,18.30
2022-08-26T19:51:36.897Z,18.30
2022-08-26T19:54:05.040Z,18.30
2022-08-26T19:56:32.828Z,18.40
2022-08-26T19:59:00.681Z,18.40
2022-08-26T20:01:28.676Z,18.30
2022-08-26T20:03:56.785Z,18.30
2022-08-26T20:06:33.146Z,18.30
2022-08-26T20:09:00.949Z,18.30
2022-08-26T20:11:31.218Z,18.30
2022-08-26T20:13:57.862Z,18.30
2022-08-26T20:16:25.855Z,18.40
2022-08-26T20:18:53.760Z,18.40
2022-08-26T20:21:21.654Z,18.40
2022-08-26T20:23:49.857Z,18.30
2022-08-26T20:26:16.663Z,18.30
2022-08-26T20:28:44.820Z,18.20
2022-08-26T20:31:13.071Z,18.20
2022-08-26T20:33:46.631Z,18.20
2022-08-26T20:36:15.858Z,18.30
2022-08-26T20:38:43.930Z,18.30
2022-08-26T20:41:15.108Z,18.40
2022-08-26T20:43:45.345Z,18.50
2022-08-26T20:46:18.810Z,18.50
2022-08-26T20:48:48.934Z,18.50
2022-08-26T20:51:20.483Z,18.50
2022-08-26T20:53:49.548Z,18.40
2022-08-26T20:56:17.811Z,18.40
2022-08-26T20:58:45.631Z,18.50
2022-08-26T21:01:19.947Z,18.40
2022-08-26T21:03:54.509Z,18.30
2022-08-26T21:06:26.234Z,18.20
2022-08-26T21:08:56.232Z,18.20
2022-08-26T21:11:23.499Z,18.30
2022-08-26T21:14:07.010Z,18.30
2022-08-26T21:16:40.657Z,18.30
2022-08-26T21:19:11.494Z,18.40
2022-08-26T21:21:41.920Z,18.30
2022-08-26T21:24:12.589Z,18.40
2022-08-26T21:26:40.747Z,18.50
2022-08-26T21:29:13.335Z,18.50
2022-08-26T21:31:45.664Z,18.50
2022-08-26T21:34:23.558Z,18.50
2022-08-26T21:36:50.315Z,18.40
2022-08-26T21:39:17.213Z,18.40
2022-08-26T21:41:46.037Z,18.30
2022-08-26T21:44:15.365Z,18.30
2022-08-26T21:46:44.647Z,18.40
2022-08-26T21:49:14.706Z,18.30
2022-08-26T21:51:45.112Z,18.30
2022-08-26T21:54:13.004Z,18.30
2022-08-26T21:56:43.813Z,18.20
2022-08-26T21:59:13.143Z,18.20
2022-08-26T22:01:41.640Z,18.20
2022-08-26T22:04:10.316Z,18.20
2022-08-26T22:06:43.903Z,18.20
2022-08-26T22:09:13.893Z,18.20
2022-08-26T22:11:42.465Z,18.20
2022-08-26T22:14:10.907Z,18.20
2022-08-26T22:16:38.817Z,18.30
2022-08-26T22:19:07.123Z,18.30
2022-08-26T22:21:33.956Z,18.30
2022-08-26T22:24:03.592Z,18.40
2022-08-26T22:26:32.783Z,18.30
2022-08-26T22:29:02.137Z,18.40
2022-08-26T22:31:37.276Z,18.40
2022-08-26T22:34:09.206Z,18.40
2022-08-26T22:36:42.908Z,18.50
2022-08-26T22:39:19.226Z,18.50
2022-08-26T22:41:48.465Z,18.50
2022-08-26T22:44:18.281Z,18.50
2022-08-26T22:46:47.015Z,18.50
2022-08-26T22:49:15.966Z,18.50
2022-08-26T22:51:44.202Z,18.50
2022-08-26T22:54:10.968Z,18.50
2022-08-26T22:56:39.880Z,18.50
2022-08-26T22:59:08.431Z,18.50
2022-08-26T23:01:40.345Z,18.40
2022-08-26T23:04:08.975Z,18.40
2022-08-26T23:06:38.093Z,18.40
2022-08-26T23:09:07.471Z,18.50
2022-08-26T23:11:35.249Z,18.50
2022-08-26T23:14:06.653Z,18.50
2022-08-26T23:16:39.793Z,18.40
2022-08-26T23:19:13.014Z,18.40
2022-08-26T23:21:41.681Z,18.50
2022-08-26T23:24:11.129Z,18.50
2022-08-26T23:26:40.655Z,18.50
2022-08-26T23:29:11.008Z,18.40
2022-08-26T23:31:40.806Z,18.30
2022-08-26T23:34:08.970Z,18.40
2022-08-26T23:36:38.108Z,18.40
2022-08-26T23:39:07.103Z,18.30
2022-08-26T23:41:36.503Z,18.20
2022-08-26T23:44:07.188Z,18.10
2022-08-26T23:46:37.547Z,18.20
2022-08-26T23:49:08.043Z,18.20
2022-08-26T23:51:37.224Z,18.30
2022-08-26T23:54:07.470Z,18.30
2022-08-26T23:56:37.948Z,18.30
2022-08-26T23:59:05.052Z,18.40
